Pridgen, Georgia
Current Conditions -  °F | °C
As of 2:35 AM on Sunday 23 Nov 2014 (Local Time) from KDQH Reporting Station
Heavy Rain Heavy Rain  
Wind Chill: 61°   Ceiling: 300
Heat Index: 61°   Visibility: 4mi
Dew Point: 59°   Wind: 12mph
Humidity: 94%   Direction: 70°ENE
Pressure: 30.09"   Gusts: NA
Location:  31.6888°N, 82.911°W
Report Text: KDQH 230735Z AUTO 07010KT 4SM +RA BKN003 BKN007 OVC021 16/15 A3009 RMK AO2
Loading
Personal Weather Stations






























Interactive Weather Map New forecast layout! Learn more

10-Day Weather Forecast

Advertisements
Track Severe Weather on mobile